createdAt,value
2018-04-27T00:02:25.552Z,94.90
2018-04-27T00:04:53.086Z,94.80
2018-04-27T00:07:20.630Z,95.20
2018-04-27T00:09:48.143Z,95.30
2018-04-27T00:12:15.700Z,95.40
2018-04-27T00:14:43.287Z,95.40
2018-04-27T00:17:10.953Z,95.60
2018-04-27T00:19:38.479Z,95.80
2018-04-27T00:22:06.036Z,95.90
2018-04-27T00:24:33.575Z,95.80
2018-04-27T00:27:01.457Z,96.00
2018-04-27T00:29:29.013Z,96.40
2018-04-27T00:31:56.560Z,96.30
2018-04-27T00:34:24.092Z,96.40
2018-04-27T00:36:51.665Z,96.60
2018-04-27T00:39:19.941Z,96.50
2018-04-27T00:41:48.227Z,96.60
2018-04-27T00:44:15.764Z,96.60
2018-04-27T00:46:43.276Z,96.50
2018-04-27T00:49:10.828Z,96.20
2018-04-27T00:51:38.458Z,96.70
2018-04-27T00:54:05.934Z,96.70
2018-04-27T00:56:33.524Z,96.80
2018-04-27T00:59:01.066Z,96.50
2018-04-27T01:01:28.582Z,96.60
2018-04-27T01:03:56.887Z,96.50
2018-04-27T01:06:24.447Z,96.50
2018-04-27T01:08:52.011Z,96.50
2018-04-27T01:11:19.542Z,96.50
2018-04-27T01:13:47.837Z,96.20
2018-04-27T01:16:15.351Z,96.20
2018-04-27T01:18:42.892Z,96.70
2018-04-27T01:21:10.430Z,97.20
2018-04-27T01:23:37.970Z,97.40
2018-04-27T01:26:05.500Z,97.40
2018-04-27T01:28:33.791Z,96.80
2018-04-27T01:31:01.349Z,96.80
2018-04-27T01:33:28.858Z,96.10
2018-04-27T01:35:56.374Z,96.00
2018-04-27T01:38:23.908Z,96.40
2018-04-27T01:40:52.237Z,96.40
2018-04-27T02:03:16.972Z,96.40
2018-04-27T02:05:44.489Z,96.50
2018-04-27T02:08:12.003Z,96.70
2018-04-27T02:10:39.548Z,96.90
2018-04-27T02:13:07.145Z,96.60
2018-04-27T02:15:35.392Z,96.20
2018-04-27T02:18:02.883Z,96.20
2018-04-27T02:20:30.375Z,96.70
2018-04-27T02:22:57.867Z,96.90
2018-04-27T02:25:25.483Z,96.50
2018-04-27T02:27:53.044Z,97.10
2018-04-27T02:30:20.604Z,96.50
2018-04-27T02:32:48.096Z,95.90
2018-04-27T02:35:15.566Z,96.00
2018-04-27T02:37:43.053Z,96.30
2018-04-27T02:42:44.567Z,95.90
2018-04-27T02:45:12.078Z,96.30
2018-04-27T02:47:39.582Z,96.60
2018-04-27T02:50:07.069Z,96.40
2018-04-27T02:52:35.326Z,96.30
2018-04-27T02:55:02.827Z,96.20
2018-04-27T02:57:30.343Z,96.50
2018-04-27T02:59:57.829Z,97.10
2018-04-27T03:02:25.322Z,96.90
2018-04-27T03:04:52.836Z,97.10
2018-04-27T03:07:21.099Z,97.40
2018-04-27T03:09:48.589Z,97.40
2018-04-27T03:12:16.093Z,98.10
2018-04-27T03:14:43.576Z,98.20
2018-04-27T03:17:11.064Z,98.50
2018-04-27T03:19:38.562Z,98.50
2018-04-27T03:22:06.101Z,99.20
2018-04-27T03:24:33.579Z,99.00
2018-04-27T03:27:01.088Z,98.70
2018-04-27T03:29:28.602Z,98.90
2018-04-27T03:31:56.116Z,98.90
2018-04-27T03:34:23.640Z,98.90
2018-04-27T03:39:25.723Z,98.40
2018-04-27T03:41:53.986Z,98.70
2018-04-27T03:44:21.486Z,98.70
2018-04-27T03:46:48.983Z,98.80
2018-04-27T03:49:16.510Z,99.40
2018-04-27T03:51:44.011Z,99.60
2018-04-27T03:54:11.509Z,99.90
2018-04-27T03:56:39.018Z,99.90
2018-04-27T03:59:06.563Z,99.90
2018-04-27T04:01:45.897Z,99.50
2018-04-27T04:04:25.493Z,99.90
2018-04-27T04:06:53.739Z,99.90
2018-04-27T04:09:21.259Z,99.80
2018-04-27T04:11:48.734Z,99.90
2018-04-27T04:14:16.237Z,99.90
2018-04-27T04:16:44.488Z,99.90
2018-04-27T04:19:12.758Z,99.90
2018-04-27T04:21:40.254Z,99.90
2018-04-27T04:24:07.757Z,99.90
2018-04-27T04:26:35.254Z,99.90
2018-04-27T04:29:03.517Z,99.90
2018-04-27T04:31:31.006Z,99.90
2018-04-27T04:33:58.510Z,99.90
2018-04-27T04:36:25.978Z,99.90
2018-04-27T04:38:53.811Z,99.90
2018-04-27T04:41:21.307Z,99.90
2018-04-27T04:43:48.782Z,99.90
2018-04-27T04:46:16.317Z,99.90
2018-04-27T04:48:43.866Z,99.90
2018-04-27T04:51:11.352Z,99.90
2018-04-27T04:53:39.675Z,99.90
2018-04-27T04:56:07.191Z,99.90
2018-04-27T04:58:34.706Z,99.90
2018-04-27T05:01:02.526Z,99.90
2018-04-27T05:03:30.030Z,99.90
2018-04-27T05:05:57.596Z,99.90
2018-04-27T05:08:25.081Z,99.90
2018-04-27T05:10:53.347Z,99.90
2018-04-27T05:13:20.849Z,99.90
2018-04-27T05:15:48.347Z,99.90
2018-04-27T05:21:17.357Z,99.90
2018-04-27T05:23:44.838Z,99.90
2018-04-27T05:26:13.115Z,99.90
2018-04-27T05:28:40.614Z,99.90
2018-04-27T05:31:20.109Z,99.90
2018-04-27T05:33:47.600Z,99.90
2018-04-27T05:36:15.105Z,99.90
2018-04-27T05:38:42.631Z,99.90
2018-04-27T05:41:10.969Z,99.90
2018-04-27T05:43:38.472Z,99.90
2018-04-27T05:46:06.814Z,99.90
2018-04-27T05:48:34.339Z,99.90
2018-04-27T05:51:02.583Z,99.90
2018-04-27T05:53:30.071Z,99.90
2018-04-27T05:55:59.285Z,98.90
2018-04-27T05:58:26.783Z,98.90
2018-04-27T06:00:54.325Z,98.50
2018-04-27T06:03:21.913Z,98.00
2018-04-27T06:05:49.432Z,98.20
2018-04-27T06:08:16.910Z,97.90
2018-04-27T06:10:44.442Z,97.60
2018-04-27T06:13:13.250Z,97.20
2018-04-27T06:15:41.605Z,95.90
2018-04-27T06:18:09.183Z,95.90
2018-04-27T06:20:37.202Z,95.60
2018-04-27T06:23:04.693Z,95.20
2018-04-27T06:25:32.204Z,95.20
2018-04-27T06:28:00.603Z,94.40
2018-04-27T06:30:28.858Z,92.10
2018-04-27T06:32:56.611Z,92.30
2018-04-27T06:35:24.255Z,92.60
2018-04-27T06:37:51.736Z,92.30
2018-04-27T06:40:19.318Z,92.00
2018-04-27T06:42:47.680Z,93.50
2018-04-27T06:45:15.180Z,93.50
2018-04-27T06:47:42.686Z,93.10
2018-04-27T06:50:10.173Z,92.20
2018-04-27T06:52:38.437Z,92.50
2018-04-27T06:55:05.915Z,92.40
2018-04-27T06:57:34.165Z,92.70
2018-04-27T07:00:01.648Z,92.70
2018-04-27T07:02:29.932Z,92.70
2018-04-27T07:04:57.511Z,92.70
2018-04-27T07:07:25.007Z,92.60
2018-04-27T07:09:52.505Z,92.30
2018-04-27T07:12:20.091Z,92.70
2018-04-27T07:14:47.586Z,92.20
2018-04-27T07:17:15.072Z,92.20
2018-04-27T07:19:43.329Z,90.80
2018-04-27T07:22:10.836Z,90.80
2018-04-27T07:24:38.351Z,90.30
2018-04-27T07:27:06.607Z,88.50
2018-04-27T07:29:34.104Z,88.30
2018-04-27T07:32:01.619Z,88.90
2018-04-27T07:34:29.194Z,90.00
2018-04-27T07:36:56.685Z,88.80
2018-04-27T07:39:24.316Z,86.60
2018-04-27T07:41:52.598Z,83.90
2018-04-27T07:44:20.854Z,83.70
2018-04-27T07:46:49.156Z,85.20
2018-04-27T07:49:17.618Z,86.10
2018-04-27T07:51:45.882Z,84.20
2018-04-27T07:54:13.423Z,84.10
2018-04-27T07:56:40.910Z,84.90
2018-04-27T07:59:09.189Z,84.60
2018-04-27T08:01:37.490Z,82.70
2018-04-27T08:04:05.026Z,82.60
2018-04-27T08:06:32.691Z,81.20
2018-04-27T08:09:00.955Z,81.00
2018-04-27T08:11:28.455Z,80.90
2018-04-27T08:13:55.959Z,81.90
2018-04-27T08:16:23.450Z,80.60
2018-04-27T08:18:50.929Z,80.30
2018-04-27T08:21:18.427Z,79.00
2018-04-27T08:23:45.906Z,79.60
2018-04-27T08:26:14.162Z,80.60
2018-04-27T08:28:41.680Z,80.60
2018-04-27T08:31:09.209Z,82.50
2018-04-27T08:33:37.460Z,79.00
2018-04-27T08:36:05.033Z,78.90
2018-04-27T08:38:32.504Z,79.00
2018-04-27T08:40:59.996Z,77.00
2018-04-27T08:43:27.511Z,77.60
2018-04-27T08:45:55.015Z,79.30
2018-04-27T08:48:23.325Z,77.50
2018-04-27T08:50:50.884Z,77.40
2018-04-27T08:53:18.423Z,76.40
2018-04-27T08:55:45.925Z,77.50
2018-04-27T08:58:14.259Z,75.00
2018-04-27T09:00:41.735Z,74.90
2018-04-27T09:03:09.981Z,75.00
2018-04-27T09:05:37.601Z,75.00
2018-04-27T09:08:05.144Z,75.30
2018-04-27T09:10:33.423Z,73.80
2018-04-27T09:13:00.929Z,73.80
2018-04-27T09:15:28.427Z,73.90
2018-04-27T09:17:56.688Z,72.30
2018-04-27T09:20:24.179Z,71.40
2018-04-27T09:22:51.769Z,73.60
2018-04-27T09:25:19.401Z,72.70
2018-04-27T09:27:46.900Z,70.00
2018-04-27T09:30:14.491Z,69.90
2018-04-27T09:32:42.101Z,69.30
2018-04-27T09:35:09.613Z,70.40
2018-04-27T09:37:37.888Z,68.00
2018-04-27T09:40:05.401Z,68.00
2018-04-27T09:42:32.980Z,67.50
2018-04-27T09:45:00.478Z,66.30
2018-04-27T09:47:28.046Z,69.00
2018-04-27T09:49:55.547Z,65.40
2018-04-27T09:52:23.825Z,66.80
2018-04-27T09:54:51.474Z,66.70
2018-04-27T09:57:19.083Z,65.20
2018-04-27T09:59:46.619Z,66.10
2018-04-27T10:02:14.145Z,66.70
2018-04-27T10:04:41.703Z,62.70
2018-04-27T10:07:09.466Z,62.60
2018-04-27T10:09:36.964Z,63.50
2018-04-27T10:12:04.486Z,64.20
2018-04-27T10:14:31.997Z,62.80
2018-04-27T10:16:59.601Z,62.60
2018-04-27T10:19:27.160Z,61.80
2018-04-27T10:21:54.659Z,61.30
2018-04-27T10:24:22.162Z,60.80
2018-04-27T10:26:49.660Z,59.80
2018-04-27T10:29:17.239Z,59.50
2018-04-27T10:31:45.522Z,59.50
2018-04-27T10:34:13.918Z,59.90
2018-04-27T10:36:41.574Z,59.90
2018-04-27T10:39:09.438Z,59.40
2018-04-27T10:41:36.964Z,59.80
2018-04-27T10:44:04.737Z,60.90
2018-04-27T10:46:32.990Z,58.50
2018-04-27T10:49:00.519Z,58.50
2018-04-27T10:51:28.024Z,58.90
2018-04-27T10:53:55.532Z,58.60
2018-04-27T10:56:23.032Z,58.80
2018-04-27T10:58:50.508Z,57.20
2018-04-27T11:01:18.834Z,58.80
2018-04-27T11:03:46.392Z,58.80
2018-04-27T11:06:13.912Z,58.80
2018-04-27T11:08:41.448Z,57.60
2018-04-27T11:11:08.945Z,58.50
2018-04-27T11:13:36.452Z,57.00
2018-04-27T11:16:03.986Z,57.50
2018-04-27T11:18:31.630Z,58.90
2018-04-27T11:20:59.157Z,57.00
2018-04-27T11:23:27.440Z,57.90
2018-04-27T11:25:54.914Z,57.80
2018-04-27T11:28:22.522Z,56.90
2018-04-27T11:30:50.031Z,56.40
2018-04-27T11:33:17.561Z,56.40
2018-04-27T11:35:45.118Z,54.90
2018-04-27T11:38:13.393Z,55.10
2018-04-27T11:40:41.677Z,54.90
2018-04-27T11:43:09.950Z,53.30
2018-04-27T11:45:38.971Z,54.60
2018-04-27T11:48:06.454Z,54.60
2018-04-27T11:50:34.036Z,53.70
2018-04-27T11:53:01.573Z,55.40
2018-04-27T11:55:29.075Z,55.30
2018-04-27T11:57:56.813Z,54.40
2018-04-27T12:00:24.317Z,52.80
2018-04-27T12:02:51.874Z,54.00
2018-04-27T12:05:19.520Z,53.00
2018-04-27T12:07:47.773Z,54.20
2018-04-27T12:10:16.091Z,53.70
2018-04-27T12:12:43.577Z,53.60
2018-04-27T12:15:11.204Z,52.90
2018-04-27T12:17:38.716Z,54.40
2018-04-27T12:20:06.219Z,51.50
2018-04-27T12:22:33.731Z,54.00
2018-04-27T12:25:01.267Z,53.80
2018-04-27T12:27:28.732Z,51.70
2018-04-27T12:29:56.264Z,52.50
2018-04-27T12:32:23.764Z,52.70
2018-04-27T12:34:51.250Z,51.30
2018-04-27T12:37:19.526Z,53.20
2018-04-27T12:39:47.045Z,53.10
2018-04-27T12:42:15.717Z,52.80
2018-04-27T12:44:43.462Z,52.80
2018-04-27T12:47:10.960Z,50.70
2018-04-27T12:49:38.467Z,49.50
2018-04-27T12:52:06.174Z,51.30
2018-04-27T12:54:33.747Z,50.70
2018-04-27T12:57:02.007Z,48.40
2018-04-27T12:59:29.601Z,48.20
2018-04-27T13:01:57.994Z,49.40
2018-04-27T13:04:25.871Z,49.60
2018-04-27T13:06:53.482Z,50.60
2018-04-27T13:09:21.983Z,49.40
2018-04-27T13:11:49.484Z,49.30
2018-04-27T13:14:16.991Z,48.80
2018-04-27T13:16:44.545Z,49.40
2018-04-27T13:19:12.012Z,46.90
2018-04-27T13:21:39.555Z,47.50
2018-04-27T13:24:07.065Z,48.50
2018-04-27T13:26:34.590Z,48.70
2018-04-27T13:29:02.125Z,48.10
2018-04-27T13:31:29.701Z,48.30
2018-04-27T13:33:57.372Z,46.20
2018-04-27T13:36:25.077Z,46.90
2018-04-27T13:38:52.605Z,51.20
2018-04-27T13:41:20.156Z,47.70
2018-04-27T13:43:47.821Z,47.80
2018-04-27T13:46:15.435Z,50.80
2018-04-27T13:48:43.328Z,50.50
2018-04-27T13:51:10.934Z,49.20
2018-04-27T13:53:38.845Z,47.10
2018-04-27T13:56:06.316Z,45.30
2018-04-27T13:58:34.762Z,43.70
2018-04-27T14:01:02.360Z,43.70
2018-04-27T14:03:30.250Z,44.60
2018-04-27T14:05:58.193Z,47.60
2018-04-27T14:08:25.863Z,46.80
2018-04-27T14:10:53.653Z,43.20
2018-04-27T14:13:21.217Z,44.50
2018-04-27T14:15:48.731Z,45.80
2018-04-27T14:18:16.234Z,46.70
2018-04-27T14:20:43.766Z,47.60
2018-04-27T14:23:11.250Z,42.40
2018-04-27T14:25:38.826Z,43.20
2018-04-27T14:28:06.414Z,46.50
2018-04-27T14:30:33.869Z,43.90
2018-04-27T14:33:02.137Z,48.70
2018-04-27T14:35:30.419Z,48.00
2018-04-27T14:37:58.687Z,48.90
2018-04-27T14:40:26.231Z,48.80
2018-04-27T14:42:53.727Z,46.80
2018-04-27T14:45:21.310Z,42.10
2018-04-27T14:47:49.233Z,40.30
2018-04-27T14:50:17.624Z,43.80
2018-04-27T14:52:46.848Z,43.50
2018-04-27T14:55:15.221Z,43.50
2018-04-27T14:57:42.799Z,41.40
2018-04-27T15:00:10.348Z,38.10
2018-04-27T15:02:37.867Z,35.10
2018-04-27T15:05:07.041Z,32.80
2018-04-27T15:07:34.595Z,32.70
2018-04-27T15:10:02.202Z,35.00
2018-04-27T15:12:29.715Z,30.70
2018-04-27T15:14:57.270Z,27.90
2018-04-27T15:17:24.772Z,28.40
2018-04-27T15:19:52.253Z,28.10
2018-04-27T15:22:19.797Z,27.80
2018-04-27T15:24:47.290Z,30.00
2018-04-27T15:27:14.786Z,25.70
2018-04-27T15:29:43.123Z,26.80
2018-04-27T15:32:10.640Z,26.80
2018-04-27T15:34:38.215Z,27.30
2018-04-27T15:37:05.715Z,27.40
2018-04-27T15:39:33.238Z,30.00
2018-04-27T15:42:00.748Z,30.00
2018-04-27T15:44:29.071Z,34.00
2018-04-27T15:46:56.678Z,34.00
2018-04-27T15:49:25.261Z,33.20
2018-04-27T15:51:52.821Z,33.20
2018-04-27T15:54:20.471Z,33.40
2018-04-27T15:56:47.979Z,37.40
2018-04-27T15:59:15.520Z,39.10
2018-04-27T16:01:43.111Z,39.90
2018-04-27T16:04:10.646Z,41.00
2018-04-27T16:06:38.164Z,42.50
2018-04-27T16:09:05.667Z,42.60
2018-04-27T16:11:33.208Z,39.60
2018-04-27T16:14:00.808Z,41.10
2018-04-27T16:16:29.285Z,42.70
2018-04-27T16:19:00.233Z,44.80
2018-04-27T16:21:28.477Z,48.90
2018-04-27T16:23:56.079Z,48.90
2018-04-27T16:26:24.504Z,49.30
2018-04-27T16:28:51.998Z,50.50
2018-04-27T16:31:19.550Z,50.30
2018-04-27T16:33:47.880Z,48.90
2018-04-27T16:36:16.195Z,49.40
2018-04-27T16:38:43.790Z,49.40
2018-04-27T16:41:12.095Z,52.50
2018-04-27T16:43:39.622Z,52.50
2018-04-27T16:46:07.115Z,53.80
2018-04-27T16:48:34.628Z,53.90
2018-04-27T16:51:02.104Z,55.60
2018-04-27T16:53:29.604Z,55.30
2018-04-27T16:55:57.169Z,56.90
2018-04-27T16:58:24.772Z,55.80
2018-04-27T17:00:52.313Z,56.50
2018-04-27T17:03:19.819Z,57.70
2018-04-27T17:05:48.076Z,56.60
2018-04-27T17:08:15.574Z,56.60
2018-04-27T17:10:43.080Z,56.90
2018-04-27T17:13:10.574Z,57.50
2018-04-27T17:15:38.887Z,58.40
2018-04-27T17:18:06.413Z,58.40
2018-04-27T17:20:33.900Z,56.60
2018-04-27T17:23:01.606Z,58.00
2018-04-27T17:25:29.928Z,62.00
2018-04-27T17:27:57.514Z,61.90
2018-04-27T17:30:25.021Z,61.90
2018-04-27T17:32:53.311Z,63.10
2018-04-27T17:35:20.880Z,63.00
2018-04-27T17:37:48.352Z,62.70
2018-04-27T17:40:15.840Z,64.70
2018-04-27T17:42:43.341Z,66.80
2018-04-27T17:45:10.845Z,67.20
2018-04-27T17:47:38.365Z,68.10
2018-04-27T17:50:05.885Z,68.80
2018-04-27T17:52:34.153Z,65.00
2018-04-27T17:55:01.663Z,64.90
2018-04-27T17:57:29.162Z,66.80
2018-04-27T17:59:56.678Z,69.30
2018-04-27T18:02:24.176Z,71.10
2018-04-27T18:04:51.733Z,71.20
2018-04-27T18:07:19.561Z,70.30
2018-04-27T18:09:47.124Z,71.00
2018-04-27T18:12:14.734Z,71.70
2018-04-27T18:14:42.210Z,71.90
2018-04-27T18:17:09.728Z,72.00
2018-04-27T18:19:37.318Z,63.20
2018-04-27T18:22:04.850Z,70.60
2018-04-27T18:24:32.374Z,70.80
2018-04-27T18:26:59.984Z,67.30
2018-04-27T18:29:27.539Z,68.10
2018-04-27T18:31:55.798Z,66.40
2018-04-27T18:34:23.435Z,65.50
2018-04-27T18:36:50.950Z,64.80
2018-04-27T18:39:19.307Z,62.90
2018-04-27T18:41:47.648Z,66.60
2018-04-27T18:44:15.234Z,66.60
2018-04-27T18:46:42.748Z,62.90
2018-04-27T18:49:10.363Z,59.60
2018-04-27T18:51:37.927Z,53.00
2018-04-27T18:54:06.348Z,59.10
2018-04-27T18:56:33.866Z,59.10
2018-04-27T18:59:02.197Z,59.70
2018-04-27T19:01:29.786Z,59.60
2018-04-27T19:03:57.329Z,59.30
2018-04-27T19:06:24.934Z,58.80
2018-04-27T19:08:53.331Z,57.40
2018-04-27T19:11:20.846Z,57.40
2018-04-27T19:13:48.423Z,58.80
2018-04-27T19:16:16.736Z,60.00
2018-04-27T19:18:44.595Z,59.90
2018-04-27T19:21:22.174Z,62.40
2018-04-27T19:23:49.670Z,64.30
2018-04-27T19:26:17.191Z,66.60
2018-04-27T19:28:45.446Z,64.80
2018-04-27T19:31:13.706Z,67.50
2018-04-27T19:33:41.264Z,67.40
2018-04-27T19:36:08.884Z,66.50
2018-04-27T19:38:36.473Z,65.70
2018-04-27T19:41:04.053Z,64.40
2018-04-27T19:43:31.660Z,64.40
2018-04-27T19:45:59.147Z,64.40
2018-04-27T19:48:26.635Z,62.90
2018-04-27T19:50:54.134Z,64.70
2018-04-27T19:53:21.653Z,65.20
2018-04-27T19:55:50.363Z,63.80
2018-04-27T19:58:18.714Z,62.50
2018-04-27T20:00:47.156Z,63.80
2018-04-27T20:03:15.523Z,63.30
2018-04-27T20:05:43.942Z,63.20
2018-04-27T20:08:11.440Z,64.40
2018-04-27T20:10:39.721Z,65.50
2018-04-27T20:13:07.362Z,65.40
2018-04-27T20:15:37.560Z,65.40
2018-04-27T20:18:17.730Z,64.60
2018-04-27T20:20:46.302Z,65.70
2018-04-27T20:23:13.989Z,65.50
2018-04-27T20:25:41.570Z,66.10
2018-04-27T20:28:10.669Z,66.30
2018-04-27T20:30:40.976Z,66.80
2018-04-27T20:33:13.050Z,66.90
2018-04-27T20:35:40.588Z,67.20
2018-04-27T20:38:24.925Z,67.60
2018-04-27T20:40:52.745Z,67.90
2018-04-27T20:43:22.189Z,68.20
2018-04-27T20:45:49.719Z,68.80
2018-04-27T20:48:18.204Z,69.60
2018-04-27T20:51:02.491Z,70.10
2018-04-27T20:53:31.885Z,70.50
2018-04-27T20:56:02.160Z,70.20
2018-04-27T20:58:31.315Z,69.30
2018-04-27T21:00:58.905Z,69.10
2018-04-27T21:03:26.471Z,69.60
2018-04-27T21:05:54.061Z,70.00
2018-04-27T21:08:22.331Z,71.30
2018-04-27T21:10:49.863Z,72.10
2018-04-27T21:13:17.438Z,70.60
2018-04-27T21:15:45.040Z,70.70
2018-04-27T21:18:15.491Z,70.50
2018-04-27T21:20:43.083Z,71.40
2018-04-27T21:23:10.596Z,71.60
2018-04-27T21:25:38.203Z,72.50
2018-04-27T21:28:17.428Z,72.60
2018-04-27T21:30:47.659Z,72.60
2018-04-27T21:33:15.228Z,73.60
2018-04-27T21:35:49.017Z,74.50
2018-04-27T21:41:24.654Z,74.40
2018-04-27T21:43:52.317Z,74.40
2018-04-27T21:46:20.522Z,73.20
2018-04-27T21:48:48.152Z,74.30
2018-04-27T21:51:15.644Z,75.80
2018-04-27T21:53:43.141Z,75.80
2018-04-27T21:56:10.635Z,75.70
2018-04-27T21:58:38.146Z,76.50
2018-04-27T22:01:05.669Z,77.00
2018-04-27T22:03:33.303Z,78.90
2018-04-27T22:06:00.904Z,77.60
2018-04-27T22:08:47.060Z,76.60
2018-04-27T22:11:17.799Z,78.50
2018-04-27T22:13:46.053Z,77.60
2018-04-27T22:16:23.850Z,77.60
2018-04-27T22:18:51.336Z,79.00
2018-04-27T22:21:18.868Z,79.50
2018-04-27T22:23:46.414Z,79.80
2018-04-27T22:26:14.687Z,81.40
2018-04-27T22:28:42.985Z,81.80
2018-04-27T22:31:10.494Z,83.30
2018-04-27T22:33:42.301Z,84.50
2018-04-27T22:36:24.730Z,84.50
2018-04-27T22:39:11.063Z,83.30
2018-04-27T22:41:39.310Z,82.20
2018-04-27T22:44:07.744Z,82.20
2018-04-27T22:46:35.272Z,82.90
2018-04-27T22:49:04.421Z,82.90
2018-04-27T22:51:45.707Z,82.80
2018-04-27T22:54:36.600Z,82.60
2018-04-27T22:57:13.910Z,82.60
2018-04-27T22:59:42.963Z,83.10
2018-04-27T23:02:14.126Z,83.10
2018-04-27T23:04:41.659Z,82.30
2018-04-27T23:07:09.182Z,83.20
2018-04-27T23:09:36.674Z,82.30
2018-04-27T23:12:04.314Z,83.30
2018-04-27T23:14:33.883Z,84.70
2018-04-27T23:17:04.106Z,84.60
2018-04-27T23:19:45.258Z,83.60
2018-04-27T23:22:25.379Z,83.60
2018-04-27T23:24:54.536Z,84.70
2018-04-27T23:27:22.079Z,84.60
2018-04-27T23:29:49.630Z,84.70
2018-04-27T23:32:17.126Z,83.70
2018-04-27T23:34:44.987Z,85.50
2018-04-27T23:37:12.502Z,84.00
2018-04-27T23:39:39.995Z,83.20
2018-04-27T23:42:07.498Z,83.30
2018-04-27T23:44:35.001Z,83.50
2018-04-27T23:47:02.505Z,84.10
2018-04-27T23:49:30.904Z,85.50
2018-04-27T23:51:58.844Z,85.50
2018-04-27T23:54:26.347Z,84.60
2018-04-27T23:56:59.238Z,85.50
2018-04-27T23:59:27.561Z,83.70
